sensor_id;sensor_type;location;lat;lon;timestamp;P1;durP1;ratioP1;P2;durP2;ratioP2
36995;SDS011;22905;50.340;10.776;2023-04-29T00:02:36;64.38;;;34.15;;
36995;SDS011;22905;50.340;10.776;2023-04-29T00:07:37;55.92;;;29.75;;
36995;SDS011;22905;50.340;10.776;2023-04-29T00:12:37;61.67;;;31.88;;
36995;SDS011;22905;50.340;10.776;2023-04-29T00:17:37;65.15;;;32.95;;
36995;SDS011;22905;50.340;10.776;2023-04-29T00:22:38;60.43;;;31.90;;
36995;SDS011;22905;50.340;10.776;2023-04-29T00:27:38;58.55;;;31.73;;
36995;SDS011;22905;50.340;10.776;2023-04-29T00:32:39;58.90;;;31.10;;
36995;SDS011;22905;50.340;10.776;2023-04-29T00:37:40;58.20;;;29.23;;
36995;SDS011;22905;50.340;10.776;2023-04-29T00:42:40;55.60;;;28.20;;
36995;SDS011;22905;50.340;10.776;2023-04-29T00:47:41;51.13;;;26.15;;
36995;SDS011;22905;50.340;10.776;2023-04-29T00:52:41;48.83;;;25.35;;
36995;SDS011;22905;50.340;10.776;2023-04-29T00:57:42;48.53;;;26.65;;
36995;SDS011;22905;50.340;10.776;2023-04-29T01:02:42;42.73;;;21.60;;
36995;SDS011;22905;50.340;10.776;2023-04-29T01:13:23;47.97;;;23.98;;
36995;SDS011;22905;50.340;10.776;2023-04-29T01:18:38;56.90;;;21.58;;
36995;SDS011;22905;50.340;10.776;2023-04-29T01:23:40;42.22;;;21.25;;
36995;SDS011;22905;50.340;10.776;2023-04-29T01:33:50;39.75;;;20.52;;
36995;SDS011;22905;50.340;10.776;2023-04-29T01:39:05;40.13;;;20.55;;
36995;SDS011;22905;50.340;10.776;2023-04-29T01:44:12;40.40;;;19.60;;
36995;SDS011;22905;50.340;10.776;2023-04-29T01:49:23;49.88;;;22.88;;
36995;SDS011;22905;50.340;10.776;2023-04-29T01:54:23;40.53;;;20.67;;
36995;SDS011;22905;50.340;10.776;2023-04-29T01:59:24;39.70;;;19.33;;
36995;SDS011;22905;50.340;10.776;2023-04-29T02:04:24;38.47;;;19.70;;
36995;SDS011;22905;50.340;10.776;2023-04-29T02:09:24;38.57;;;20.60;;
36995;SDS011;22905;50.340;10.776;2023-04-29T02:14:25;39.00;;;22.27;;
36995;SDS011;22905;50.340;10.776;2023-04-29T02:19:25;40.93;;;20.30;;
36995;SDS011;22905;50.340;10.776;2023-04-29T02:24:25;36.60;;;18.55;;
36995;SDS011;22905;50.340;10.776;2023-04-29T02:29:26;35.53;;;19.60;;
36995;SDS011;22905;50.340;10.776;2023-04-29T02:34:28;39.22;;;19.08;;
36995;SDS011;22905;50.340;10.776;2023-04-29T02:39:28;43.83;;;20.23;;
36995;SDS011;22905;50.340;10.776;2023-04-29T02:44:29;41.13;;;19.65;;
36995;SDS011;22905;50.340;10.776;2023-04-29T02:49:30;39.90;;;20.67;;
36995;SDS011;22905;50.340;10.776;2023-04-29T02:54:30;41.28;;;19.77;;
36995;SDS011;22905;50.340;10.776;2023-04-29T02:59:31;40.63;;;17.93;;
36995;SDS011;22905;50.340;10.776;2023-04-29T03:04:31;42.47;;;19.73;;
36995;SDS011;22905;50.340;10.776;2023-04-29T03:09:31;43.00;;;19.80;;
36995;SDS011;22905;50.340;10.776;2023-04-29T03:14:31;41.90;;;18.97;;
36995;SDS011;22905;50.340;10.776;2023-04-29T03:19:32;40.25;;;19.48;;
36995;SDS011;22905;50.340;10.776;2023-04-29T03:24:32;38.50;;;19.00;;
36995;SDS011;22905;50.340;10.776;2023-04-29T03:29:32;38.67;;;18.55;;
36995;SDS011;22905;50.340;10.776;2023-04-29T03:34:33;41.47;;;19.00;;
36995;SDS011;22905;50.340;10.776;2023-04-29T03:39:33;41.80;;;18.40;;
36995;SDS011;22905;50.340;10.776;2023-04-29T03:44:33;33.80;;;16.23;;
36995;SDS011;22905;50.340;10.776;2023-04-29T03:49:34;32.03;;;17.10;;
36995;SDS011;22905;50.340;10.776;2023-04-29T03:54:34;37.35;;;17.13;;
36995;SDS011;22905;50.340;10.776;2023-04-29T03:59:35;33.78;;;15.45;;
36995;SDS011;22905;50.340;10.776;2023-04-29T04:04:35;38.95;;;17.80;;
36995;SDS011;22905;50.340;10.776;2023-04-29T04:09:36;35.00;;;17.17;;
36995;SDS011;22905;50.340;10.776;2023-04-29T04:14:37;35.55;;;18.25;;
36995;SDS011;22905;50.340;10.776;2023-04-29T04:19:37;37.30;;;19.00;;
36995;SDS011;22905;50.340;10.776;2023-04-29T04:24:37;37.72;;;17.33;;
36995;SDS011;22905;50.340;10.776;2023-04-29T04:29:38;38.33;;;18.45;;
36995;SDS011;22905;50.340;10.776;2023-04-29T04:34:38;31.87;;;16.73;;
36995;SDS011;22905;50.340;10.776;2023-04-29T04:39:38;35.47;;;18.50;;
36995;SDS011;22905;50.340;10.776;2023-04-29T04:44:39;45.03;;;22.10;;
36995;SDS011;22905;50.340;10.776;2023-04-29T04:49:39;36.80;;;16.25;;
36995;SDS011;22905;50.340;10.776;2023-04-29T04:54:39;33.83;;;17.87;;
36995;SDS011;22905;50.340;10.776;2023-04-29T04:59:40;31.43;;;16.43;;
36995;SDS011;22905;50.340;10.776;2023-04-29T05:04:40;34.83;;;16.98;;
36995;SDS011;22905;50.340;10.776;2023-04-29T05:09:40;31.13;;;16.53;;
36995;SDS011;22905;50.340;10.776;2023-04-29T05:14:41;32.30;;;15.73;;
36995;SDS011;22905;50.340;10.776;2023-04-29T05:19:41;33.33;;;17.77;;
36995;SDS011;22905;50.340;10.776;2023-04-29T05:24:41;32.50;;;17.37;;
36995;SDS011;22905;50.340;10.776;2023-04-29T05:29:42;29.50;;;15.50;;
36995;SDS011;22905;50.340;10.776;2023-04-29T05:34:42;29.67;;;16.30;;
36995;SDS011;22905;50.340;10.776;2023-04-29T05:39:43;28.15;;;15.57;;
36995;SDS011;22905;50.340;10.776;2023-04-29T05:44:44;28.07;;;15.33;;
36995;SDS011;22905;50.340;10.776;2023-04-29T05:49:44;24.70;;;13.10;;
36995;SDS011;22905;50.340;10.776;2023-04-29T05:54:45;24.45;;;14.20;;
36995;SDS011;22905;50.340;10.776;2023-04-29T05:59:45;27.53;;;17.20;;
36995;SDS011;22905;50.340;10.776;2023-04-29T06:04:45;28.43;;;18.93;;
36995;SDS011;22905;50.340;10.776;2023-04-29T06:09:46;22.38;;;12.85;;
36995;SDS011;22905;50.340;10.776;2023-04-29T06:14:47;19.60;;;12.03;;
36995;SDS011;22905;50.340;10.776;2023-04-29T06:19:47;16.80;;;10.70;;
36995;SDS011;22905;50.340;10.776;2023-04-29T06:24:47;16.73;;;10.43;;
36995;SDS011;22905;50.340;10.776;2023-04-29T06:29:51;13.60;;;9.30;;
36995;SDS011;22905;50.340;10.776;2023-04-29T06:34:52;12.68;;;8.38;;
36995;SDS011;22905;50.340;10.776;2023-04-29T06:39:52;16.20;;;8.55;;
36995;SDS011;22905;50.340;10.776;2023-04-29T06:44:52;12.00;;;8.57;;
36995;SDS011;22905;50.340;10.776;2023-04-29T06:49:53;30.88;;;17.90;;
36995;SDS011;22905;50.340;10.776;2023-04-29T06:54:53;11.48;;;7.97;;
36995;SDS011;22905;50.340;10.776;2023-04-29T06:59:53;12.88;;;7.88;;
36995;SDS011;22905;50.340;10.776;2023-04-29T07:04:53;13.38;;;9.13;;
36995;SDS011;22905;50.340;10.776;2023-04-29T07:09:54;12.05;;;8.40;;
36995;SDS011;22905;50.340;10.776;2023-04-29T07:14:55;15.65;;;9.48;;
36995;SDS011;22905;50.340;10.776;2023-04-29T07:19:56;10.43;;;6.38;;
36995;SDS011;22905;50.340;10.776;2023-04-29T07:24:57;8.80;;;5.87;;
36995;SDS011;22905;50.340;10.776;2023-04-29T07:29:58;7.07;;;4.63;;
36995;SDS011;22905;50.340;10.776;2023-04-29T07:35:00;6.72;;;4.93;;
36995;SDS011;22905;50.340;10.776;2023-04-29T07:40:00;6.35;;;4.47;;
36995;SDS011;22905;50.340;10.776;2023-04-29T07:45:01;6.17;;;4.00;;
36995;SDS011;22905;50.340;10.776;2023-04-29T07:50:01;9.53;;;4.43;;
36995;SDS011;22905;50.340;10.776;2023-04-29T07:55:02;7.90;;;5.32;;
36995;SDS011;22905;50.340;10.776;2023-04-29T08:00:02;8.65;;;6.03;;
36995;SDS011;22905;50.340;10.776;2023-04-29T08:05:03;13.27;;;6.82;;
36995;SDS011;22905;50.340;10.776;2023-04-29T08:10:04;13.77;;;8.95;;
36995;SDS011;22905;50.340;10.776;2023-04-29T08:15:05;15.10;;;7.82;;
36995;SDS011;22905;50.340;10.776;2023-04-29T08:20:06;12.52;;;6.95;;
36995;SDS011;22905;50.340;10.776;2023-04-29T08:25:07;14.25;;;7.00;;
36995;SDS011;22905;50.340;10.776;2023-04-29T08:30:08;7.75;;;4.88;;
36995;SDS011;22905;50.340;10.776;2023-04-29T08:35:08;13.18;;;5.47;;
36995;SDS011;22905;50.340;10.776;2023-04-29T08:40:09;9.75;;;5.00;;
36995;SDS011;22905;50.340;10.776;2023-04-29T08:45:10;8.48;;;4.55;;
36995;SDS011;22905;50.340;10.776;2023-04-29T08:50:12;6.68;;;4.15;;
36995;SDS011;22905;50.340;10.776;2023-04-29T08:55:12;7.28;;;4.40;;
36995;SDS011;22905;50.340;10.776;2023-04-29T09:00:12;5.18;;;3.20;;
36995;SDS011;22905;50.340;10.776;2023-04-29T09:05:13;5.05;;;3.67;;
36995;SDS011;22905;50.340;10.776;2023-04-29T09:10:13;6.37;;;3.47;;
36995;SDS011;22905;50.340;10.776;2023-04-29T09:15:15;6.43;;;3.60;;
36995;SDS011;22905;50.340;10.776;2023-04-29T09:25:21;4.65;;;2.88;;
36995;SDS011;22905;50.340;10.776;2023-04-29T09:30:22;4.40;;;2.63;;
36995;SDS011;22905;50.340;10.776;2023-04-29T09:35:23;3.90;;;1.95;;
36995;SDS011;22905;50.340;10.776;2023-04-29T09:40:28;7.83;;;2.00;;
36995;SDS011;22905;50.340;10.776;2023-04-29T09:45:38;2.88;;;1.75;;
36995;SDS011;22905;50.340;10.776;2023-04-29T09:50:42;5.95;;;2.47;;
36995;SDS011;22905;50.340;10.776;2023-04-29T09:56:27;3.88;;;2.05;;
36995;SDS011;22905;50.340;10.776;2023-04-29T10:01:29;3.50;;;2.10;;
36995;SDS011;22905;50.340;10.776;2023-04-29T10:06:30;3.15;;;2.45;;
36995;SDS011;22905;50.340;10.776;2023-04-29T10:11:31;6.13;;;2.90;;
36995;SDS011;22905;50.340;10.776;2023-04-29T10:16:33;4.43;;;2.28;;
36995;SDS011;22905;50.340;10.776;2023-04-29T10:21:34;5.10;;;2.53;;
36995;SDS011;22905;50.340;10.776;2023-04-29T10:26:34;2.92;;;1.98;;
36995;SDS011;22905;50.340;10.776;2023-04-29T10:31:38;3.25;;;2.30;;
36995;SDS011;22905;50.340;10.776;2023-04-29T10:36:48;3.45;;;2.17;;
36995;SDS011;22905;50.340;10.776;2023-04-29T10:41:48;6.80;;;2.08;;
36995;SDS011;22905;50.340;10.776;2023-04-29T10:47:19;3.58;;;2.05;;
36995;SDS011;22905;50.340;10.776;2023-04-29T10:52:20;3.08;;;1.55;;
36995;SDS011;22905;50.340;10.776;2023-04-29T10:57:20;4.47;;;2.30;;
36995;SDS011;22905;50.340;10.776;2023-04-29T11:02:20;2.20;;;1.67;;
36995;SDS011;22905;50.340;10.776;2023-04-29T11:07:28;2.97;;;1.60;;
36995;SDS011;22905;50.340;10.776;2023-04-29T11:12:28;3.67;;;1.77;;
36995;SDS011;22905;50.340;10.776;2023-04-29T11:17:35;2.05;;;1.70;;
36995;SDS011;22905;50.340;10.776;2023-04-29T11:22:36;1.83;;;1.40;;
36995;SDS011;22905;50.340;10.776;2023-04-29T11:27:38;2.07;;;1.60;;
36995;SDS011;22905;50.340;10.776;2023-04-29T11:32:39;2.00;;;1.40;;
36995;SDS011;22905;50.340;10.776;2023-04-29T11:37:40;3.38;;;1.42;;
36995;SDS011;22905;50.340;10.776;2023-04-29T11:42:45;1.92;;;1.65;;
36995;SDS011;22905;50.340;10.776;2023-04-29T11:47:47;2.35;;;1.77;;
36995;SDS011;22905;50.340;10.776;2023-04-29T11:52:48;2.90;;;1.80;;
36995;SDS011;22905;50.340;10.776;2023-04-29T11:57:48;2.45;;;1.80;;
36995;SDS011;22905;50.340;10.776;2023-04-29T12:02:50;2.30;;;1.70;;
36995;SDS011;22905;50.340;10.776;2023-04-29T12:07:50;3.37;;;1.70;;
36995;SDS011;22905;50.340;10.776;2023-04-29T12:12:50;1.57;;;1.47;;
36995;SDS011;22905;50.340;10.776;2023-04-29T12:17:51;2.58;;;1.98;;
36995;SDS011;22905;50.340;10.776;2023-04-29T12:22:52;1.83;;;1.40;;
36995;SDS011;22905;50.340;10.776;2023-04-29T12:27:57;2.67;;;2.10;;
36995;SDS011;22905;50.340;10.776;2023-04-29T12:32:58;3.33;;;1.70;;
36995;SDS011;22905;50.340;10.776;2023-04-29T12:37:59;5.75;;;1.83;;
36995;SDS011;22905;50.340;10.776;2023-04-29T12:43:05;3.08;;;1.90;;
36995;SDS011;22905;50.340;10.776;2023-04-29T12:48:07;3.08;;;1.85;;
36995;SDS011;22905;50.340;10.776;2023-04-29T12:53:07;2.25;;;2.00;;
36995;SDS011;22905;50.340;10.776;2023-04-29T12:58:08;2.47;;;1.85;;
36995;SDS011;22905;50.340;10.776;2023-04-29T13:03:08;2.23;;;2.03;;
36995;SDS011;22905;50.340;10.776;2023-04-29T13:08:09;3.50;;;2.30;;
36995;SDS011;22905;50.340;10.776;2023-04-29T13:13:09;6.72;;;2.55;;
36995;SDS011;22905;50.340;10.776;2023-04-29T13:18:09;3.77;;;2.27;;
36995;SDS011;22905;50.340;10.776;2023-04-29T13:23:09;3.93;;;2.50;;
36995;SDS011;22905;50.340;10.776;2023-04-29T13:28:11;4.70;;;2.67;;
36995;SDS011;22905;50.340;10.776;2023-04-29T13:33:11;4.97;;;2.90;;
36995;SDS011;22905;50.340;10.776;2023-04-29T13:38:12;5.10;;;3.35;;
36995;SDS011;22905;50.340;10.776;2023-04-29T13:43:12;10.65;;;4.65;;
36995;SDS011;22905;50.340;10.776;2023-04-29T13:48:12;5.15;;;2.92;;
36995;SDS011;22905;50.340;10.776;2023-04-29T13:53:13;5.90;;;3.20;;
36995;SDS011;22905;50.340;10.776;2023-04-29T13:58:13;5.28;;;3.28;;
36995;SDS011;22905;50.340;10.776;2023-04-29T14:03:15;5.93;;;3.30;;
36995;SDS011;22905;50.340;10.776;2023-04-29T14:08:17;4.32;;;2.75;;
36995;SDS011;22905;50.340;10.776;2023-04-29T14:13:17;6.18;;;4.28;;
36995;SDS011;22905;50.340;10.776;2023-04-29T14:18:17;10.43;;;4.63;;
36995;SDS011;22905;50.340;10.776;2023-04-29T14:23:18;10.15;;;5.63;;
36995;SDS011;22905;50.340;10.776;2023-04-29T14:28:18;8.93;;;5.33;;
36995;SDS011;22905;50.340;10.776;2023-04-29T14:33:18;11.30;;;5.68;;
36995;SDS011;22905;50.340;10.776;2023-04-29T14:38:19;13.32;;;7.45;;
36995;SDS011;22905;50.340;10.776;2023-04-29T14:43:19;11.88;;;7.28;;
36995;SDS011;22905;50.340;10.776;2023-04-29T14:48:19;14.57;;;7.47;;
36995;SDS011;22905;50.340;10.776;2023-04-29T14:53:20;14.85;;;7.18;;
36995;SDS011;22905;50.340;10.776;2023-04-29T14:58:21;10.75;;;6.95;;
36995;SDS011;22905;50.340;10.776;2023-04-29T15:03:22;15.43;;;8.02;;
36995;SDS011;22905;50.340;10.776;2023-04-29T15:08:22;12.85;;;6.95;;
36995;SDS011;22905;50.340;10.776;2023-04-29T15:13:22;10.75;;;6.50;;
36995;SDS011;22905;50.340;10.776;2023-04-29T15:18:23;11.00;;;6.93;;
36995;SDS011;22905;50.340;10.776;2023-04-29T15:23:25;11.25;;;6.15;;
36995;SDS011;22905;50.340;10.776;2023-04-29T15:28:25;8.77;;;5.03;;
36995;SDS011;22905;50.340;10.776;2023-04-29T15:33:26;11.67;;;5.57;;
36995;SDS011;22905;50.340;10.776;2023-04-29T15:38:26;10.75;;;5.97;;
36995;SDS011;22905;50.340;10.776;2023-04-29T15:43:28;11.52;;;5.25;;
36995;SDS011;22905;50.340;10.776;2023-04-29T15:48:29;9.88;;;5.28;;
36995;SDS011;22905;50.340;10.776;2023-04-29T15:53:29;10.43;;;5.57;;
36995;SDS011;22905;50.340;10.776;2023-04-29T15:58:29;8.70;;;5.43;;
36995;SDS011;22905;50.340;10.776;2023-04-29T16:03:30;10.90;;;5.72;;
36995;SDS011;22905;50.340;10.776;2023-04-29T16:08:30;10.18;;;5.85;;
36995;SDS011;22905;50.340;10.776;2023-04-29T16:13:30;8.53;;;5.93;;
36995;SDS011;22905;50.340;10.776;2023-04-29T16:18:31;9.70;;;5.78;;
36995;SDS011;22905;50.340;10.776;2023-04-29T16:23:31;10.40;;;6.10;;
36995;SDS011;22905;50.340;10.776;2023-04-29T16:28:32;10.83;;;7.13;;
36995;SDS011;22905;50.340;10.776;2023-04-29T16:33:32;12.40;;;7.63;;
36995;SDS011;22905;50.340;10.776;2023-04-29T16:38:32;13.20;;;7.80;;
36995;SDS011;22905;50.340;10.776;2023-04-29T16:43:33;13.27;;;8.20;;
36995;SDS011;22905;50.340;10.776;2023-04-29T16:48:33;11.90;;;7.32;;
36995;SDS011;22905;50.340;10.776;2023-04-29T16:53:33;7.73;;;6.00;;
36995;SDS011;22905;50.340;10.776;2023-04-29T16:58:34;12.80;;;6.45;;
36995;SDS011;22905;50.340;10.776;2023-04-29T17:03:34;11.52;;;6.32;;
36995;SDS011;22905;50.340;10.776;2023-04-29T17:08:35;11.25;;;6.45;;
36995;SDS011;22905;50.340;10.776;2023-04-29T17:13:35;10.05;;;6.80;;
36995;SDS011;22905;50.340;10.776;2023-04-29T17:18:35;10.63;;;7.37;;
36995;SDS011;22905;50.340;10.776;2023-04-29T17:23:36;11.43;;;7.05;;
36995;SDS011;22905;50.340;10.776;2023-04-29T17:28:36;10.55;;;6.10;;
36995;SDS011;22905;50.340;10.776;2023-04-29T17:33:37;16.43;;;7.07;;
36995;SDS011;22905;50.340;10.776;2023-04-29T17:38:38;11.15;;;6.70;;
36995;SDS011;22905;50.340;10.776;2023-04-29T17:43:39;14.55;;;7.35;;
36995;SDS011;22905;50.340;10.776;2023-04-29T17:48:39;15.32;;;6.55;;
36995;SDS011;22905;50.340;10.776;2023-04-29T17:53:40;11.20;;;6.82;;
36995;SDS011;22905;50.340;10.776;2023-04-29T17:58:40;10.20;;;6.40;;
36995;SDS011;22905;50.340;10.776;2023-04-29T18:03:40;10.50;;;7.03;;
36995;SDS011;22905;50.340;10.776;2023-04-29T18:08:41;14.73;;;7.55;;
36995;SDS011;22905;50.340;10.776;2023-04-29T18:13:41;9.17;;;6.23;;
36995;SDS011;22905;50.340;10.776;2023-04-29T18:18:41;11.80;;;7.27;;
36995;SDS011;22905;50.340;10.776;2023-04-29T18:23:42;10.20;;;7.07;;
36995;SDS011;22905;50.340;10.776;2023-04-29T18:28:45;12.13;;;7.85;;
36995;SDS011;22905;50.340;10.776;2023-04-29T18:33:45;9.18;;;6.30;;
36995;SDS011;22905;50.340;10.776;2023-04-29T18:38:46;12.32;;;8.05;;
36995;SDS011;22905;50.340;10.776;2023-04-29T18:43:46;14.75;;;7.10;;
36995;SDS011;22905;50.340;10.776;2023-04-29T18:48:46;10.10;;;7.10;;
36995;SDS011;22905;50.340;10.776;2023-04-29T18:53:47;11.15;;;7.53;;
36995;SDS011;22905;50.340;10.776;2023-04-29T18:58:47;22.15;;;11.60;;
36995;SDS011;22905;50.340;10.776;2023-04-29T19:03:48;27.88;;;15.52;;
36995;SDS011;22905;50.340;10.776;2023-04-29T19:08:48;26.30;;;14.93;;
36995;SDS011;22905;50.340;10.776;2023-04-29T19:13:49;24.48;;;12.38;;
36995;SDS011;22905;50.340;10.776;2023-04-29T19:18:49;22.25;;;12.40;;
36995;SDS011;22905;50.340;10.776;2023-04-29T19:23:50;17.50;;;11.32;;
36995;SDS011;22905;50.340;10.776;2023-04-29T19:28:53;17.53;;;9.23;;
36995;SDS011;22905;50.340;10.776;2023-04-29T19:34:00;17.13;;;10.00;;
36995;SDS011;22905;50.340;10.776;2023-04-29T19:39:01;15.85;;;9.57;;
36995;SDS011;22905;50.340;10.776;2023-04-29T19:44:10;19.63;;;10.35;;
36995;SDS011;22905;50.340;10.776;2023-04-29T19:49:13;16.90;;;9.18;;
36995;SDS011;22905;50.340;10.776;2023-04-29T19:54:19;11.68;;;7.40;;
36995;SDS011;22905;50.340;10.776;2023-04-29T19:59:20;13.60;;;8.20;;
36995;SDS011;22905;50.340;10.776;2023-04-29T20:04:20;13.87;;;7.37;;
36995;SDS011;22905;50.340;10.776;2023-04-29T20:14:23;12.48;;;8.00;;
36995;SDS011;22905;50.340;10.776;2023-04-29T20:19:23;17.83;;;8.88;;
36995;SDS011;22905;50.340;10.776;2023-04-29T20:24:24;14.25;;;9.25;;
36995;SDS011;22905;50.340;10.776;2023-04-29T20:29:25;12.32;;;8.35;;
36995;SDS011;22905;50.340;10.776;2023-04-29T20:34:27;14.00;;;8.13;;
36995;SDS011;22905;50.340;10.776;2023-04-29T20:39:27;16.73;;;9.00;;
36995;SDS011;22905;50.340;10.776;2023-04-29T20:44:27;12.82;;;8.02;;
36995;SDS011;22905;50.340;10.776;2023-04-29T20:49:29;17.38;;;7.82;;
36995;SDS011;22905;50.340;10.776;2023-04-29T20:54:29;12.43;;;7.93;;
36995;SDS011;22905;50.340;10.776;2023-04-29T20:59:30;14.53;;;8.50;;
36995;SDS011;22905;50.340;10.776;2023-04-29T21:04:31;12.15;;;8.05;;
36995;SDS011;22905;50.340;10.776;2023-04-29T21:09:31;16.77;;;10.30;;
36995;SDS011;22905;50.340;10.776;2023-04-29T21:14:32;16.83;;;10.68;;
36995;SDS011;22905;50.340;10.776;2023-04-29T21:19:36;12.38;;;7.72;;
36995;SDS011;22905;50.340;10.776;2023-04-29T21:24:36;13.40;;;8.02;;
36995;SDS011;22905;50.340;10.776;2023-04-29T21:29:36;13.93;;;9.50;;
36995;SDS011;22905;50.340;10.776;2023-04-29T21:39:39;12.23;;;8.43;;
36995;SDS011;22905;50.340;10.776;2023-04-29T21:44:40;16.88;;;9.70;;
36995;SDS011;22905;50.340;10.776;2023-04-29T21:49:40;12.63;;;8.63;;
36995;SDS011;22905;50.340;10.776;2023-04-29T21:54:40;14.20;;;9.47;;
36995;SDS011;22905;50.340;10.776;2023-04-29T21:59:41;13.38;;;9.35;;
36995;SDS011;22905;50.340;10.776;2023-04-29T22:04:41;13.70;;;9.90;;
36995;SDS011;22905;50.340;10.776;2023-04-29T22:09:41;11.43;;;8.50;;
36995;SDS011;22905;50.340;10.776;2023-04-29T22:14:48;12.32;;;8.35;;
36995;SDS011;22905;50.340;10.776;2023-04-29T22:19:48;13.80;;;9.10;;
36995;SDS011;22905;50.340;10.776;2023-04-29T22:24:49;18.27;;;8.98;;
36995;SDS011;22905;50.340;10.776;2023-04-29T22:29:49;13.98;;;8.10;;
36995;SDS011;22905;50.340;10.776;2023-04-29T22:34:50;15.33;;;10.37;;
36995;SDS011;22905;50.340;10.776;2023-04-29T22:39:50;15.35;;;9.65;;
36995;SDS011;22905;50.340;10.776;2023-04-29T22:45:08;14.93;;;8.98;;
36995;SDS011;22905;50.340;10.776;2023-04-29T22:50:16;14.80;;;9.13;;
36995;SDS011;22905;50.340;10.776;2023-04-29T22:55:16;14.23;;;9.43;;
36995;SDS011;22905;50.340;10.776;2023-04-29T23:00:18;14.03;;;8.63;;
36995;SDS011;22905;50.340;10.776;2023-04-29T23:05:34;17.75;;;10.60;;
36995;SDS011;22905;50.340;10.776;2023-04-29T23:10:35;12.98;;;9.43;;
36995;SDS011;22905;50.340;10.776;2023-04-29T23:15:35;18.17;;;9.80;;
36995;SDS011;22905;50.340;10.776;2023-04-29T23:20:35;18.50;;;9.57;;
36995;SDS011;22905;50.340;10.776;2023-04-29T23:25:36;16.08;;;10.50;;
36995;SDS011;22905;50.340;10.776;2023-04-29T23:30:37;20.88;;;9.10;;
36995;SDS011;22905;50.340;10.776;2023-04-29T23:35:37;17.93;;;9.87;;
36995;SDS011;22905;50.340;10.776;2023-04-29T23:40:38;17.35;;;10.27;;
36995;SDS011;22905;50.340;10.776;2023-04-29T23:45:38;17.00;;;10.25;;
36995;SDS011;22905;50.340;10.776;2023-04-29T23:50:38;17.55;;;9.20;;
36995;SDS011;22905;50.340;10.776;2023-04-29T23:55:39;18.25;;;10.85;;
